High wind

Not for real navigation. The accuracy of this data is not assured See disclaimer for more information



ICAO NAME COUNTRY WIND Kt GUST Kt VIS m TEMP/DEW C BARO METAR
RPVM Masbate Philippines 50 0 9999 29/24 29.83 RPVM 150900Z 05050KT 9999 FEW018CB BKN100 29/24 Q1010 NOSIG RMK A2983 CB S/NW-W
KGDP GUADALUPE PASS TX United States 37 0 800 1/-1 30.13 KGDP 150901Z AUTO 07037KT 0.5SM FG VV002 01/M01 A3013 RMK AO2 PK WND 07040/0852 T00061011 $
ENSS Svartnes Norway 31 0 9999 8/6 29.41 ENSS 150850Z 32031KT 9999 RA SCT012 SCT015 BKN070 08/06 Q0996 RMK WIND 500FT 31032G44KT
EHDV 30 0 4600 12/10 29.85 EHDV 150855Z AUTO 01030KT 4600 SHRA FEW007/// SCT008/// BKN010/// 12/10 Q1011 W///H///
LFMT Montpellier France 29 39 8000 20/15 29.80 LFMT 150900Z AUTO 11029G39KT 8000 BKN030/// BKN036/// OVC098/// ///TCU 20/15 Q1009 TEMPO 1200 TSRA B

Show more